Time;durP1;ratioP1;P1;durP2;ratioP2;P2;SDS_P1;SDS_P2;PMS_P1;PMS_P2;Temp;Humidity;BMP_temperature;BMP_pressure;BME280_temperature;BME280_humidity;BME280_pressure;Samples;Min_cycle;Max_cycle;Signal;HPM_P1;HPM_P2
2021/09/26 00:01:12;;;;;;;15.38;9.50;;;;;;;14.28;100.00;101626.66;5048226;28;20033;-78
2021/09/26 00:03:38;;;;;;;12.27;8.43;;;;;;;14.28;100.00;101616.09;5036797;28;20043;-78
2021/09/26 00:06:04;;;;;;;14.90;8.60;;;;;;;14.30;100.00;101627.34;5054801;28;20067;-77
2021/09/26 00:08:29;;;;;;;13.30;8.25;;;;;;;14.21;100.00;101617.66;5020112;28;20513;-81
2021/09/26 00:10:55;;;;;;;13.75;8.65;;;;;;;14.23;100.00;101621.00;5037122;28;20037;-78
2021/09/26 00:13:20;;;;;;;13.05;8.50;;;;;;;14.21;100.00;101626.41;5036558;28;20118;-79
2021/09/26 00:15:46;;;;;;;12.23;8.23;;;;;;;14.19;100.00;101631.00;5048346;28;20048;-77
2021/09/26 00:18:11;;;;;;;12.13;9.02;;;;;;;14.15;100.00;101621.72;5020165;28;20035;-80
2021/09/26 00:20:37;;;;;;;13.93;10.48;;;;;;;14.09;100.00;101627.63;5020410;28;20040;-79
2021/09/26 00:23:02;;;;;;;11.25;9.48;;;;;;;14.10;100.00;101628.44;5035763;28;20033;-78
2021/09/26 00:25:28;;;;;;;16.50;10.90;;;;;;;14.14;100.00;101624.50;5036640;28;20072;-80
2021/09/26 00:27:54;;;;;;;20.08;10.55;;;;;;;14.09;100.00;101624.97;5054327;28;20063;-78
2021/09/26 00:30:20;;;;;;;18.00;11.02;;;;;;;14.11;100.00;101627.44;5053701;28;20041;-81
2021/09/26 00:32:46;;;;;;;17.27;10.35;;;;;;;14.15;100.00;101628.81;5054333;28;20044;-82
2021/09/26 00:35:12;;;;;;;17.95;11.50;;;;;;;14.16;100.00;101623.38;5036539;28;20037;-81
2021/09/26 00:37:38;;;;;;;18.92;11.45;;;;;;;14.16;100.00;101614.63;5051263;28;20057;-80
2021/09/26 00:40:06;;;;;;;18.92;12.88;;;;;;;14.14;100.00;101614.78;5020057;28;20029;-79
2021/09/26 00:42:32;;;;;;;16.02;12.13;;;;;;;14.08;100.00;101614.56;5036130;28;20036;-78
2021/09/26 00:44:58;;;;;;;18.55;12.23;;;;;;;13.99;100.00;101606.56;5019699;28;20037;-80
2021/09/26 00:47:24;;;;;;;19.50;12.75;;;;;;;14.03;100.00;101615.00;5053531;28;20036;-77
2021/09/26 00:49:50;;;;;;;16.95;12.38;;;;;;;14.08;100.00;101619.84;5035463;28;20045;-77
2021/09/26 00:52:20;;;;;;;19.17;14.65;;;;;;;14.11;100.00;101619.53;5054077;28;20033;-79
2021/09/26 00:54:46;;;;;;;20.50;13.55;;;;;;;14.12;100.00;101615.91;5035466;28;20041;-80
2021/09/26 00:57:12;;;;;;;25.92;14.75;;;;;;;14.21;100.00;101621.13;5019331;28;20097;-80
2021/09/26 00:59:38;;;;;;;22.98;13.85;;;;;;;14.20;100.00;101618.63;5019505;28;20036;-80
2021/09/26 01:02:04;;;;;;;19.08;12.98;;;;;;;14.22;100.00;101621.94;5019785;28;20411;-80
2021/09/26 01:04:30;;;;;;;13.48;11.10;;;;;;;14.25;100.00;101626.94;5002671;28;20045;-78
2021/09/26 01:07:14;;;;;;;22.92;12.85;;;;;;;14.26;100.00;101623.34;5019565;28;20059;-80
2021/09/26 01:09:59;;;;;;;17.08;11.23;;;;;;;14.27;100.00;101617.06;5035942;28;20063;-79
2021/09/26 01:12:46;;;;;;;12.82;10.60;;;;;;;14.27;100.00;101614.44;5019438;28;20055;-79
2021/09/26 01:15:24;;;;;;;13.98;11.27;;;;;;;14.28;100.00;101617.88;5035534;28;20116;-81
2021/09/26 01:18:00;;;;;;;16.27;11.00;;;;;;;14.29;100.00;101614.28;5027258;28;20045;-77
2021/09/26 01:20:42;;;;;;;19.85;11.40;;;;;;;14.28;100.00;101608.19;5056110;28;20039;-78
2021/09/26 01:23:44;;;;;;;19.42;10.02;;;;;;;14.23;100.00;101606.97;5051114;28;20132;-77
2021/09/26 01:26:28;;;;;;;17.08;9.38;;;;;;;14.28;100.00;101612.59;5033886;28;20044;-77
2021/09/26 01:29:14;;;;;;;13.27;8.88;;;;;;;14.26;100.00;101610.16;5050762;28;20119;-80
2021/09/26 01:31:45;;;;;;;17.55;9.70;;;;;;;14.27;100.00;101617.06;5033572;28;20465;-80
2021/09/26 01:34:19;;;;;;;11.48;8.40;;;;;;;14.26;100.00;101617.22;5032832;28;20059;-79
2021/09/26 01:37:10;;;;;;;13.25;8.75;;;;;;;14.24;100.00;101613.88;5033511;28;20111;-80
2021/09/26 01:39:44;;;;;;;14.65;9.60;;;;;;;14.22;100.00;101619.31;5017187;28;20139;-80
2021/09/26 01:42:22;;;;;;;12.27;8.82;;;;;;;14.16;100.00;101609.38;5016674;28;20029;-80
2021/09/26 01:45:26;;;;;;;10.88;8.95;;;;;;;14.18;100.00;101615.31;5031738;28;20080;-77
2021/09/26 01:47:59;;;;;;;16.33;8.38;;;;;;;14.16;100.00;101604.09;5037677;28;20498;-78
2021/09/26 01:50:25;;;;;;;14.38;8.75;;;;;;;14.18;100.00;101613.53;5017088;28;20060;-79
2021/09/26 01:52:52;;;;;;;12.60;8.15;;;;;;;14.17;100.00;101619.78;5033953;28;20390;-78
2021/09/26 01:55:22;;;;;;;10.18;7.88;;;;;;;14.16;100.00;101612.00;5033100;28;20037;-80
2021/09/26 01:57:48;;;;;;;17.10;8.38;;;;;;;14.14;100.00;101612.16;5032899;28;20025;-80
2021/09/26 02:00:14;;;;;;;12.00;7.95;;;;;;;14.12;100.00;101614.09;5015466;28;20055;-78
2021/09/26 02:02:42;;;;;;;10.82;7.45;;;;;;;14.09;100.00;101606.50;5047072;28;20083;-77
2021/09/26 02:05:09;;;;;;;11.38;7.82;;;;;;;14.10;100.00;101607.31;5047736;28;20499;-79
2021/09/26 02:07:39;;;;;;;9.88;7.43;;;;;;;14.08;100.00;101606.66;5029585;28;20068;-77
2021/09/26 02:10:06;;;;;;;10.57;8.00;;;;;;;14.04;100.00;101600.00;5015835;28;20043;-77
2021/09/26 02:12:33;;;;;;;10.82;7.28;;;;;;;14.04;100.00;101606.13;5050973;28;20068;-79
2021/09/26 02:15:01;;;;;;;9.20;7.00;;;;;;;14.06;100.00;101609.44;4999811;28;20071;-80
2021/09/26 02:17:27;;;;;;;10.60;7.20;;;;;;;14.09;100.00;101611.78;5032480;28;20682;-78
2021/09/26 02:20:00;;;;;;;10.10;7.15;;;;;;;14.12;100.00;101606.19;5050825;28;20063;-79
2021/09/26 02:22:27;;;;;;;12.10;7.50;;;;;;;14.11;100.00;101609.81;5000025;28;20333;-80
2021/09/26 02:24:53;;;;;;;12.18;7.53;;;;;;;14.06;100.00;101603.34;5050363;28;20025;-79
2021/09/26 02:27:19;;;;;;;9.07;7.53;;;;;;;14.03;100.00;101596.53;4999740;28;20121;-80
2021/09/26 02:29:44;;;;;;;10.77;6.82;;;;;;;14.01;100.00;101599.34;5021629;28;20119;-79
2021/09/26 02:32:10;;;;;;;12.07;7.15;;;;;;;14.04;100.00;101598.19;5047563;28;20071;-78
2021/09/26 02:34:35;;;;;;;11.60;7.18;;;;;;;14.07;100.00;101602.34;5015653;28;20135;-78
2021/09/26 02:37:01;;;;;;;10.70;7.13;;;;;;;14.12;100.00;101608.00;5015926;28;20095;-77
2021/09/26 02:39:27;;;;;;;10.48;6.82;;;;;;;14.10;100.00;101599.41;5031689;28;20051;-78
2021/09/26 02:42:08;;;;;;;10.15;6.90;;;;;;;14.08;100.00;101599.56;5050313;28;20036;-78
2021/09/26 02:44:46;;;;;;;16.88;7.10;;;;;;;14.09;100.00;101601.22;5032182;28;20108;-79
2021/09/26 02:47:17;;;;;;;8.98;6.88;;;;;;;14.04;100.00;101592.09;4998167;28;20499;-79
2021/09/26 02:49:43;;;;;;;7.78;6.15;;;;;;;14.01;100.00;101599.34;5048550;28;20163;-79
2021/09/26 02:52:10;;;;;;;10.73;6.50;;;;;;;14.02;100.00;101598.34;4999876;28;20655;-77
2021/09/26 02:54:38;;;;;;;9.98;6.88;;;;;;;14.01;100.00;101596.69;5032373;28;20596;-79
2021/09/26 02:57:09;;;;;;;12.88;7.15;;;;;;;13.99;100.00;101592.53;5032597;28;20753;-81
2021/09/26 02:59:36;;;;;;;12.48;6.90;;;;;;;14.01;100.00;101594.06;5032095;28;20105;-79
2021/09/26 03:02:02;;;;;;;11.82;6.32;;;;;;;14.00;100.00;101587.09;5016003;28;20047;-79
2021/09/26 03:04:28;;;;;;;13.63;7.18;;;;;;;14.02;100.00;101590.44;5031687;28;20043;-78
2021/09/26 03:06:55;;;;;;;15.15;7.25;;;;;;;14.03;100.00;101585.97;5015896;28;20037;-79
2021/09/26 03:09:20;;;;;;;9.07;7.20;;;;;;;14.02;100.00;101595.72;5015496;28;20067;-79
2021/09/26 03:11:46;;;;;;;10.32;7.03;;;;;;;14.01;100.00;101586.16;4999435;28;20115;-79
2021/09/26 03:14:12;;;;;;;8.90;6.93;;;;;;;14.06;100.00;101590.97;5035719;28;20028;-80
2021/09/26 03:16:37;;;;;;;10.48;6.80;;;;;;;14.06;100.00;101584.88;5035429;28;20136;-79
2021/09/26 03:19:03;;;;;;;8.90;6.80;;;;;;;14.06;100.00;101588.31;5054115;28;20033;-81
2021/09/26 03:21:29;;;;;;;10.80;7.35;;;;;;;14.03;100.00;101588.63;5035704;28;20086;-79
2021/09/26 03:23:56;;;;;;;11.80;7.55;;;;;;;14.05;100.00;101591.09;5019260;28;20078;-79
2021/09/26 03:26:22;;;;;;;12.80;7.38;;;;;;;14.05;100.00;101584.00;5018643;28;20045;-79
2021/09/26 03:28:47;;;;;;;12.75;6.88;;;;;;;14.04;100.00;101582.38;5019633;28;20104;-80
2021/09/26 03:31:13;;;;;;;11.82;6.60;;;;;;;14.06;100.00;101582.22;5053755;28;20632;-77
2021/09/26 03:33:38;;;;;;;10.93;6.72;;;;;;;14.06;100.00;101583.06;5003216;28;20536;-79
2021/09/26 03:36:04;;;;;;;14.38;7.10;;;;;;;14.08;100.00;101580.28;5053584;28;20032;-79
2021/09/26 03:38:30;;;;;;;10.57;6.70;;;;;;;14.10;100.00;101580.94;5053851;28;20136;-78
2021/09/26 03:40:55;;;;;;;11.27;7.10;;;;;;;14.05;100.00;101576.09;5018634;28;20046;-77
2021/09/26 03:43:21;;;;;;;11.70;7.40;;;;;;;14.10;100.00;101579.13;5003004;28;20040;-78
2021/09/26 03:45:50;;;;;;;11.30;7.03;;;;;;;14.09;100.00;101579.28;5034747;28;20032;-78
2021/09/26 03:48:20;;;;;;;9.57;6.50;;;;;;;14.11;100.00;101579.94;5051953;28;20041;-78
2021/09/26 03:50:48;;;;;;;10.63;7.20;;;;;;;14.07;100.00;101574.19;5018943;28;20411;-78
2021/09/26 03:53:13;;;;;;;10.25;7.30;;;;;;;14.10;100.00;101567.75;5035345;28;20075;-78
2021/09/26 03:55:39;;;;;;;8.55;6.55;;;;;;;14.10;100.00;101573.84;5052085;28;20056;-78
2021/09/26 03:58:05;;;;;;;10.15;6.90;;;;;;;14.07;100.00;101568.91;5053172;28;20083;-78
2021/09/26 04:00:31;;;;;;;8.50;6.35;;;;;;;14.07;100.00;101560.97;5018756;28;20550;-79
2021/09/26 04:02:56;;;;;;;8.23;6.65;;;;;;;14.11;100.00;101569.41;5053169;28;20025;-80
2021/09/26 04:05:22;;;;;;;9.45;6.68;;;;;;;14.11;100.00;101562.34;5026774;28;20040;-81
2021/09/26 04:07:47;;;;;;;14.40;7.03;;;;;;;14.10;100.00;101560.66;5035136;28;20422;-79
2021/09/26 04:10:13;;;;;;;9.60;7.13;;;;;;;14.12;100.00;101565.78;5035471;28;20032;-76
2021/09/26 04:12:40;;;;;;;13.77;7.22;;;;;;;14.16;100.00;101562.69;5035548;28;20435;-79
2021/09/26 04:15:07;;;;;;;12.65;7.18;;;;;;;14.14;100.00;101554.09;5018240;28;20035;-81
2021/09/26 04:17:33;;;;;;;12.20;7.97;;;;;;;14.12;100.00;101550.78;5035289;28;20628;-79
2021/09/26 04:19:59;;;;;;;10.90;7.45;;;;;;;14.15;100.00;101555.78;5018613;28;20037;-79
2021/09/26 04:22:25;;;;;;;13.73;8.07;;;;;;;14.11;100.00;101548.28;5035267;28;20448;-78
2021/09/26 04:24:50;;;;;;;12.55;7.95;;;;;;;14.16;100.00;101553.97;5016738;28;20041;-81
2021/09/26 04:27:16;;;;;;;13.52;7.68;;;;;;;14.17;100.00;101553.00;5001867;28;20495;-78
2021/09/26 04:29:41;;;;;;;14.13;8.00;;;;;;;14.18;100.00;101558.13;5017902;28;20068;-79
2021/09/26 04:32:07;;;;;;;11.30;7.82;;;;;;;14.17;100.00;101553.00;5035103;28;20063;-80
2021/09/26 04:34:33;;;;;;;11.93;8.50;;;;;;;14.24;100.00;101551.41;5022515;28;20040;-78
2021/09/26 04:36:58;;;;;;;14.20;9.45;;;;;;;14.17;100.00;101542.44;5053226;28;20074;-79
2021/09/26 04:39:24;;;;;;;12.38;8.90;;;;;;;14.26;100.00;101549.47;5051154;28;20426;-79
2021/09/26 04:41:50;;;;;;;14.63;9.10;;;;;;;14.31;100.00;101549.00;5014860;28;20490;-79
2021/09/26 04:44:15;;;;;;;13.48;9.40;;;;;;;14.32;100.00;101556.75;5017504;28;20399;-80
2021/09/26 04:46:41;;;;;;;11.07;8.70;;;;;;;14.30;100.00;101553.44;5017525;28;20556;-80
2021/09/26 04:49:06;;;;;;;17.67;9.68;;;;;;;14.30;100.00;101542.88;5015018;28;20025;-78
2021/09/26 04:51:32;;;;;;;13.57;9.93;;;;;;;14.38;100.00;101544.78;5045868;28;20037;-79
2021/09/26 04:53:57;;;;;;;16.45;10.32;;;;;;;14.33;100.00;101537.28;5033666;28;20051;-78
2021/09/26 04:56:23;;;;;;;15.57;10.35;;;;;;;14.35;100.00;101532.72;5034151;28;20071;-78
2021/09/26 04:58:48;;;;;;;17.35;10.57;;;;;;;14.43;100.00;101542.50;5052052;28;20036;-79
2021/09/26 05:01:16;;;;;;;16.05;11.75;;;;;;;14.45;100.00;101551.09;5013541;28;20032;-78
2021/09/26 05:03:41;;;;;;;15.55;11.00;;;;;;;14.45;100.00;101547.63;5033731;28;20051;-78
2021/09/26 05:06:07;;;;;;;16.25;12.32;;;;;;;14.50;100.00;101553.28;5033205;28;20041;-77
2021/09/26 05:08:32;;;;;;;17.55;11.88;;;;;;;14.56;100.00;101550.88;5018148;28;20033;-78
2021/09/26 05:10:58;;;;;;;17.67;12.63;;;;;;;14.64;100.00;101562.50;5001905;28;20060;-81
2021/09/26 05:13:23;;;;;;;13.82;11.77;;;;;;;14.66;100.00;101561.38;5052561;28;20040;-78
2021/09/26 05:15:49;;;;;;;14.73;12.32;;;;;;;14.67;100.00;101547.16;5037680;28;20028;-78
2021/09/26 05:18:15;;;;;;;13.75;10.98;;;;;;;14.73;100.00;101554.50;5018112;28;20491;-77
2021/09/26 05:20:40;;;;;;;16.40;11.90;;;;;;;14.66;100.00;101548.16;5018768;28;20045;-77
2021/09/26 05:23:06;;;;;;;16.33;12.35;;;;;;;14.66;100.00;101542.88;5018694;28;20105;-77
2021/09/26 05:25:31;;;;;;;20.20;12.43;;;;;;;14.65;100.00;101546.50;5017869;28;20874;-79
2021/09/26 05:27:57;;;;;;;16.27;12.23;;;;;;;14.67;100.00;101551.63;5016310;28;20064;-78
2021/09/26 05:30:22;;;;;;;19.30;12.35;;;;;;;14.73;100.00;101551.00;5032240;28;20029;-78
2021/09/26 05:32:48;;;;;;;19.10;12.25;;;;;;;14.75;100.00;101556.97;5016406;28;20395;-78
2021/09/26 05:35:13;;;;;;;22.48;13.55;;;;;;;14.77;100.00;101562.94;5049463;28;20032;-77
2021/09/26 05:37:39;;;;;;;17.17;12.73;;;;;;;14.81;100.00;101558.19;5013776;28;20063;-78
2021/09/26 05:40:06;;;;;;;16.33;13.00;;;;;;;14.79;100.00;101555.69;5049344;28;20044;-79
2021/09/26 05:42:33;;;;;;;15.32;13.32;;;;;;;14.84;100.00;101560.50;5026504;28;20049;-78
2021/09/26 05:44:59;;;;;;;21.05;13.85;;;;;;;14.86;100.00;101561.16;5015900;28;20029;-78
2021/09/26 05:47:24;;;;;;;19.27;14.00;;;;;;;14.91;100.00;101566.81;5016481;28;20043;-79
2021/09/26 05:49:50;;;;;;;18.00;14.15;;;;;;;14.89;100.00;101564.31;5032761;28;20522;-79
2021/09/26 05:52:15;;;;;;;19.08;14.95;;;;;;;14.91;100.00;101558.91;5016545;28;20102;-77
2021/09/26 05:54:41;;;;;;;19.35;13.68;;;;;;;14.87;100.00;101550.44;5014621;28;20036;-78
2021/09/26 05:57:07;;;;;;;18.25;14.02;;;;;;;14.92;100.00;101547.34;5016161;28;20036;-78
2021/09/26 05:59:37;;;;;;;18.42;13.20;;;;;;;14.99;100.00;101556.28;5015869;28;20029;-77
2021/09/26 06:02:04;;;;;;;15.65;13.82;;;;;;;14.98;100.00;101557.28;5050566;28;20032;-77
2021/09/26 06:04:29;;;;;;;18.70;14.73;;;;;;;14.92;100.00;101563.22;5015517;28;20090;-77
2021/09/26 06:06:54;;;;;;;21.95;14.40;;;;;;;14.89;100.00;101558.22;5012898;28;20107;-78
2021/09/26 06:09:20;;;;;;;22.88;14.82;;;;;;;14.91;100.00;101558.91;5047558;28;20040;-79
2021/09/26 06:11:45;;;;;;;17.98;14.52;;;;;;;14.99;100.00;101561.56;5049632;28;20029;-80
2021/09/26 06:14:11;;;;;;;19.08;14.35;;;;;;;15.08;100.00;101563.28;5033271;28;20037;-80
2021/09/26 06:16:36;;;;;;;15.07;13.45;;;;;;;15.10;100.00;101552.56;5021110;28;20107;-80
2021/09/26 06:19:02;;;;;;;18.55;13.63;;;;;;;15.21;100.00;101560.22;5033205;28;20028;-79
2021/09/26 06:21:27;;;;;;;16.67;13.30;;;;;;;15.33;100.00;101559.00;5033095;28;20039;-79
2021/09/26 06:23:53;;;;;;;19.67;14.25;;;;;;;15.32;100.00;101543.28;5050751;28;20036;-82
2021/09/26 06:26:20;;;;;;;19.20;13.15;;;;;;;15.38;100.00;101554.03;5032152;28;20431;-80
2021/09/26 06:28:45;;;;;;;16.30;13.40;;;;;;;15.50;100.00;101564.31;5016219;28;20037;-79
2021/09/26 06:31:12;;;;;;;15.07;13.05;;;;;;;15.56;100.00;101561.88;5043737;28;20029;-77
2021/09/26 06:33:40;;;;;;;14.65;12.27;;;;;;;15.54;100.00;101553.28;5033700;28;20032;-79
2021/09/26 06:36:07;;;;;;;14.80;12.98;;;;;;;15.75;100.00;101565.28;5049228;28;20051;-78
2021/09/26 06:38:32;;;;;;;15.93;12.27;;;;;;;15.90;100.00;101563.69;5049849;28;20036;-80
2021/09/26 06:40:57;;;;;;;13.18;11.00;;;;;;;16.12;100.00;101564.91;5050569;28;20080;-81
2021/09/26 06:43:23;;;;;;;13.43;11.73;;;;;;;16.27;100.00;101577.47;5050654;28;20037;-79
2021/09/26 06:45:48;;;;;;;11.98;10.50;;;;;;;16.39;100.00;101573.53;5015311;28;20037;-80
2021/09/26 06:48:14;;;;;;;17.48;11.43;;;;;;;16.45;100.00;101572.03;5034752;28;20452;-78
2021/09/26 06:50:39;;;;;;;14.88;10.90;;;;;;;16.54;100.00;101579.00;5003586;28;20051;-80
2021/09/26 06:53:05;;;;;;;17.25;10.95;;;;;;;16.67;100.00;101575.81;5036574;28;20123;-80
2021/09/26 06:55:30;;;;;;;13.23;10.70;;;;;;;16.70;100.00;101573.69;5002811;28;20041;-79
2021/09/26 06:57:56;;;;;;;14.38;10.23;;;;;;;16.71;100.00;101554.16;5036340;28;20067;-80
2021/09/26 07:00:21;;;;;;;13.98;10.48;;;;;;;16.93;100.00;101567.72;5017767;28;20048;-79
2021/09/26 07:02:47;;;;;;;14.65;10.38;;;;;;;16.96;100.00;101566.56;5053941;28;20376;-79
2021/09/26 07:05:12;;;;;;;13.48;10.48;;;;;;;17.09;100.00;101569.53;5036420;28;20041;-81
2021/09/26 07:07:38;;;;;;;15.52;9.88;;;;;;;17.16;100.00;101559.91;5028353;28;20072;-80
2021/09/26 07:10:05;;;;;;;13.68;9.80;;;;;;;17.22;100.00;101559.22;5036198;28;20085;-79
2021/09/26 07:12:30;;;;;;;11.55;9.98;;;;;;;17.31;100.00;101567.97;5037443;28;20044;-79
2021/09/26 07:15:00;;;;;;;11.77;9.40;;;;;;;17.41;100.00;101573.91;5054375;28;20041;-80
2021/09/26 07:17:26;;;;;;;16.48;9.45;;;;;;;17.50;100.00;101575.53;5037404;28;20033;-79
2021/09/26 07:19:52;;;;;;;13.20;9.88;;;;;;;17.52;100.00;101568.22;5055469;28;20044;-78
2021/09/26 07:22:23;;;;;;;12.48;8.50;;;;;;;17.52;100.00;101568.22;5035731;28;20102;-78
2021/09/26 07:24:49;;;;;;;10.60;9.18;;;;;;;17.66;100.00;101576.44;5052433;28;20033;-76
2021/09/26 07:27:15;;;;;;;14.18;9.60;;;;;;;17.75;100.00;101571.94;5040479;28;20048;-78
2021/09/26 07:29:42;;;;;;;14.00;10.23;;;;;;;17.74;99.63;101575.59;5019400;28;20132;-78
2021/09/26 07:32:08;;;;;;;11.27;9.40;;;;;;;17.73;100.00;101572.13;5051915;28;20094;-77
2021/09/26 07:34:33;;;;;;;13.82;9.63;;;;;;;17.76;100.00;101562.97;5051329;28;20040;-77
2021/09/26 07:36:59;;;;;;;12.90;9.30;;;;;;;17.87;99.16;101565.25;5036780;28;20040;-77
2021/09/26 07:39:24;;;;;;;12.32;9.07;;;;;;;17.93;99.35;101571.69;5036981;28;20033;-79
2021/09/26 07:41:50;;;;;;;16.08;10.00;;;;;;;17.92;100.00;101562.09;5028793;28;20128;-79
2021/09/26 07:44:15;;;;;;;12.75;8.75;;;;;;;18.00;98.98;101562.03;5053857;28;20495;-79
2021/09/26 07:46:43;;;;;;;16.60;9.45;;;;;;;18.07;98.24;101570.97;5037081;28;20123;-79
2021/09/26 07:49:08;;;;;;;9.82;8.15;;;;;;;18.21;98.96;101569.38;4999873;28;20099;-79
2021/09/26 07:51:34;;;;;;;12.65;8.70;;;;;;;18.27;96.29;101568.66;5000988;28;20450;-80
2021/09/26 07:53:59;;;;;;;9.73;8.10;;;;;;;18.30;95.65;101557.69;5034838;28;20041;-78
2021/09/26 07:56:25;;;;;;;9.63;8.32;;;;;;;18.34;95.36;101563.47;5033768;28;20037;-80
2021/09/26 07:58:50;;;;;;;11.02;7.93;;;;;;;18.36;95.22;101559.63;5029087;28;20655;-77
2021/09/26 08:01:16;;;;;;;9.43;7.70;;;;;;;18.45;94.70;101563.03;5035070;28;20530;-81
2021/09/26 08:03:41;;;;;;;9.85;8.02;;;;;;;18.41;94.20;101564.41;5036649;28;20036;-81
2021/09/26 08:06:07;;;;;;;9.77;8.73;;;;;;;18.37;93.76;101560.47;5024799;28;20039;-80
2021/09/26 08:08:35;;;;;;;9.60;7.40;;;;;;;18.42;95.99;101561.59;5011635;28;20076;-79
2021/09/26 08:11:02;;;;;;;8.20;6.85;;;;;;;18.50;93.10;101566.00;5021476;28;20039;-78
2021/09/26 08:13:28;;;;;;;7.65;6.85;;;;;;;18.55;95.35;101560.13;5019504;28;20048;-81
2021/09/26 08:15:53;;;;;;;8.93;7.35;;;;;;;18.64;93.31;101562.53;5035207;28;20406;-79
2021/09/26 08:18:19;;;;;;;10.57;7.50;;;;;;;18.69;94.87;101562.00;5018623;28;20029;-79
2021/09/26 08:20:44;;;;;;;7.55;6.30;;;;;;;18.73;94.77;101563.31;5035362;28;20538;-79
2021/09/26 08:23:10;;;;;;;18.05;6.55;;;;;;;18.89;94.00;101558.84;5019910;28;20049;-79
2021/09/26 08:25:35;;;;;;;7.03;6.22;;;;;;;18.92;91.74;101569.16;5036104;28;20487;-79
2021/09/26 08:28:01;;;;;;;11.57;6.53;;;;;;;18.82;91.39;101558.78;5019761;28;20446;-79
2021/09/26 08:30:27;;;;;;;8.73;6.82;;;;;;;18.80;91.85;101561.59;5036364;28;20037;-80
2021/09/26 08:32:52;;;;;;;7.28;6.30;;;;;;;18.87;93.15;101561.69;5019479;28;20037;-79
2021/09/26 08:35:18;;;;;;;8.40;6.40;;;;;;;18.96;92.51;101567.75;5034808;28;20083;-80
2021/09/26 08:37:44;;;;;;;10.25;6.38;;;;;;;18.97;90.55;101569.44;5028787;28;20033;-81
2021/09/26 08:40:10;;;;;;;11.73;6.55;;;;;;;18.88;90.72;101560.69;5022933;28;20044;-80
2021/09/26 08:42:37;;;;;;;9.20;6.68;;;;;;;18.95;91.82;101563.44;5050774;28;20104;-81
2021/09/26 08:45:10;;;;;;;7.32;6.10;;;;;;;18.97;90.99;101564.13;5036586;28;20033;-79
2021/09/26 08:47:39;;;;;;;8.70;6.65;;;;;;;19.01;91.01;101565.41;5027746;28;20044;-81
2021/09/26 08:50:08;;;;;;;8.65;6.65;;;;;;;19.12;91.33;101569.41;4999712;28;20041;-80
2021/09/26 08:52:33;;;;;;;8.93;6.47;;;;;;;19.21;92.06;101570.97;4999778;28;20131;-81
2021/09/26 08:54:59;;;;;;;7.53;6.55;;;;;;;19.20;90.91;101572.00;5050718;28;20068;-81
2021/09/26 08:57:26;;;;;;;6.53;5.78;;;;;;;19.26;91.38;101569.41;5019421;28;20068;-81
2021/09/26 08:59:52;;;;;;;9.27;6.43;;;;;;;19.33;91.61;101566.03;5036651;28;20064;-79
2021/09/26 09:02:18;;;;;;;7.45;5.80;;;;;;;19.38;91.46;101560.97;5020456;28;20044;-81
2021/09/26 09:04:43;;;;;;;11.35;7.05;;;;;;;19.41;89.98;101563.28;5019992;28;20068;-81
2021/09/26 09:07:11;;;;;;;9.30;6.50;;;;;;;19.50;90.91;101564.00;5054245;28;20156;-80
2021/09/26 09:09:48;;;;;;;8.38;6.20;;;;;;;19.50;91.63;101556.84;5019809;28;20102;-79
2021/09/26 09:12:14;;;;;;;7.78;6.70;;;;;;;19.44;89.81;101562.91;5053675;28;20094;-78
2021/09/26 09:14:53;;;;;;;10.05;6.82;;;;;;;19.50;91.08;101564.00;5036872;28;20037;-80
2021/09/26 09:17:32;;;;;;;7.75;6.25;;;;;;;19.48;90.73;101553.56;5049776;28;20494;-79
2021/09/26 09:20:18;;;;;;;7.85;6.25;;;;;;;19.62;89.89;101559.84;5030047;28;20037;-81
2021/09/26 09:22:47;;;;;;;6.95;6.07;;;;;;;19.72;91.68;101548.91;5044044;28;20090;-78
2021/09/26 09:25:59;;;;;;;6.30;5.70;;;;;;;19.89;89.09;101558.38;5072037;28;20075;-79
2021/09/26 09:28:29;;;;;;;6.22;4.95;;;;;;;20.01;89.01;101556.03;5039329;28;20063;-78
2021/09/26 09:31:01;;;;;;;8.52;5.40;;;;;;;20.02;87.57;101557.66;5034086;28;20028;-80
2021/09/26 09:33:42;;;;;;;7.13;5.70;;;;;;;20.04;88.27;101563.63;5027087;28;20127;-78
2021/09/26 09:36:22;;;;;;;6.88;5.63;;;;;;;20.08;88.79;101558.72;5035071;28;20419;-76
2021/09/26 09:38:54;;;;;;;6.57;5.80;;;;;;;20.17;87.91;101554.94;5034602;28;20037;-79
2021/09/26 09:41:40;;;;;;;7.55;5.55;;;;;;;20.18;85.86;101552.09;5019022;28;20041;-78
2021/09/26 09:44:08;;;;;;;6.07;5.05;;;;;;;20.26;87.00;101552.97;5035001;28;20037;-79
2021/09/26 09:46:42;;;;;;;5.68;4.22;;;;;;;20.36;85.79;101554.31;5001720;28;20044;-79
2021/09/26 09:49:17;;;;;;;7.43;4.47;;;;;;;20.49;83.06;101553.56;5001837;28;20033;-82
2021/09/26 09:51:52;;;;;;;6.47;4.28;;;;;;;20.54;84.15;101555.69;5017830;28;20037;-78
2021/09/26 09:54:27;;;;;;;6.15;4.32;;;;;;;20.63;85.65;101557.22;5034149;28;20036;-78
2021/09/26 09:56:55;;;;;;;5.60;4.30;;;;;;;20.75;84.90;101552.19;5017387;28;20036;-78
2021/09/26 09:59:35;;;;;;;4.97;4.43;;;;;;;20.82;82.99;101555.72;5034466;28;20831;-78
2021/09/26 10:02:01;;;;;;;5.00;4.53;;;;;;;20.80;82.60;101547.91;5051631;28;20029;-80
2021/09/26 10:04:42;;;;;;;6.15;4.45;;;;;;;20.93;82.84;101549.03;5045730;28;20410;-80
2021/09/26 10:07:22;;;;;;;5.32;4.15;;;;;;;21.03;81.93;101552.16;5024517;28;20036;-78
2021/09/26 10:09:49;;;;;;;5.13;4.07;;;;;;;21.14;82.27;101553.47;5009744;28;20403;-78
2021/09/26 10:12:22;;;;;;;6.90;4.43;;;;;;;21.23;81.09;101549.59;5034907;28;20037;-80
2021/09/26 10:14:51;;;;;;;5.43;3.90;;;;;;;21.35;80.49;101540.00;5016225;28;20040;-79
2021/09/26 10:17:17;;;;;;;6.50;4.32;;;;;;;21.22;79.11;101547.94;5035114;28;20459;-79
2021/09/26 10:19:44;;;;;;;6.10;3.40;;;;;;;21.04;81.19;101537.81;5001364;28;20029;-78
2021/09/26 10:22:15;;;;;;;5.15;3.55;;;;;;;21.07;82.44;101542.75;5050968;28;20422;-78
2021/09/26 10:24:44;;;;;;;5.88;4.00;;;;;;;21.27;82.75;101532.19;5034220;28;20041;-80
2021/09/26 10:27:11;;;;;;;5.93;3.85;;;;;;;21.46;80.32;101541.31;5017784;28;20103;-78
2021/09/26 10:29:38;;;;;;;6.85;3.90;;;;;;;21.69;81.67;101537.50;5033157;28;20036;-78
2021/09/26 10:32:07;;;;;;;5.93;3.78;;;;;;;21.74;79.18;101525.19;5051890;28;20104;-80
2021/09/26 10:34:33;;;;;;;5.95;4.22;;;;;;;21.82;77.31;101523.38;5033986;28;20040;-79
2021/09/26 10:37:02;;;;;;;3.63;3.33;;;;;;;21.92;79.28;101527.25;5017158;28;20091;-80
2021/09/26 10:39:29;;;;;;;5.15;3.70;;;;;;;21.95;78.82;101524.19;5014200;28;20459;-77
2021/09/26 10:42:10;;;;;;;5.20;3.78;;;;;;;22.05;77.63;101521.13;5036021;28;20043;-79
2021/09/26 10:44:44;;;;;;;5.03;4.13;;;;;;;22.23;78.74;101527.75;5048550;28;20036;-80
2021/09/26 10:47:19;;;;;;;4.20;3.50;;;;;;;22.25;75.91;101523.84;5012141;28;20041;-79
2021/09/26 10:49:46;;;;;;;6.22;3.42;;;;;;;22.22;77.40;101520.75;5031711;28;20094;-79
2021/09/26 10:52:24;;;;;;;5.55;3.97;;;;;;;22.30;75.02;101516.06;5016742;28;20037;-77
2021/09/26 10:54:50;;;;;;;6.57;3.70;;;;;;;22.14;74.65;101503.88;5033044;28;20047;-78
2021/09/26 10:57:20;;;;;;;5.30;3.50;;;;;;;22.15;74.10;101515.38;5033429;28;20075;-77
2021/09/26 10:59:52;;;;;;;4.53;3.50;;;;;;;22.27;76.93;101504.97;4999481;28;20112;-79
2021/09/26 11:02:23;;;;;;;3.67;3.38;;;;;;;22.32;74.84;101505.97;5033206;28;20471;-78
2021/09/26 11:04:50;;;;;;;3.63;3.33;;;;;;;22.37;74.28;101505.34;4999568;28;20056;-78
2021/09/26 11:07:21;;;;;;;6.70;3.28;;;;;;;22.49;74.47;101501.03;5032505;28;20063;-78
2021/09/26 11:09:58;;;;;;;4.05;2.95;;;;;;;22.69;74.38;101508.19;5015952;28;20126;-77
2021/09/26 11:12:35;;;;;;;4.30;2.67;;;;;;;22.81;72.40;101495.84;5015826;28;20069;-78
2021/09/26 11:15:08;;;;;;;4.93;2.40;;;;;;;22.89;65.54;101503.63;5031225;28;20044;-78
2021/09/26 11:17:43;;;;;;;;;;;;;;;22.90;67.25;101502.59;5032864;28;20033;-79